sensor_id;sensor_type;location;lat;lon;timestamp;temperature;humidity
49765;DHT22;35657;51.204;-4.130;2022-10-13T00:00:46;14.10;99.90
49765;DHT22;35657;51.204;-4.130;2022-10-13T00:03:12;14.10;99.90
49765;DHT22;35657;51.204;-4.130;2022-10-13T00:05:44;14.10;99.90
49765;DHT22;35657;51.204;-4.130;2022-10-13T00:08:11;14.10;99.90
49765;DHT22;35657;51.204;-4.130;2022-10-13T00:10:38;14.20;99.90
49765;DHT22;35657;51.204;-4.130;2022-10-13T00:13:05;14.30;99.90
49765;DHT22;35657;51.204;-4.130;2022-10-13T00:15:32;14.30;99.90
49765;DHT22;35657;51.204;-4.130;2022-10-13T00:17:58;14.30;99.90
49765;DHT22;35657;51.204;-4.130;2022-10-13T00:20:23;14.20;99.90
49765;DHT22;35657;51.204;-4.130;2022-10-13T00:22:49;14.10;99.90
49765;DHT22;35657;51.204;-4.130;2022-10-13T00:25:15;14.00;99.90
49765;DHT22;35657;51.204;-4.130;2022-10-13T00:27:41;13.90;99.90
49765;DHT22;35657;51.204;-4.130;2022-10-13T00:30:06;13.90;99.90
49765;DHT22;35657;51.204;-4.130;2022-10-13T00:32:32;13.90;99.90
49765;DHT22;35657;51.204;-4.130;2022-10-13T00:34:58;13.80;99.90
49765;DHT22;35657;51.204;-4.130;2022-10-13T00:37:24;13.80;99.90
49765;DHT22;35657;51.204;-4.130;2022-10-13T00:39:49;13.80;99.90
49765;DHT22;35657;51.204;-4.130;2022-10-13T00:42:15;13.80;99.90
49765;DHT22;35657;51.204;-4.130;2022-10-13T00:47:30;13.70;99.90
49765;DHT22;35657;51.204;-4.130;2022-10-13T00:49:58;13.70;99.90
49765;DHT22;35657;51.204;-4.130;2022-10-13T00:52:25;13.80;99.90
49765;DHT22;35657;51.204;-4.130;2022-10-13T00:54:54;13.80;99.90
49765;DHT22;35657;51.204;-4.130;2022-10-13T00:57:20;13.80;99.90
49765;DHT22;35657;51.204;-4.130;2022-10-13T00:59:46;13.70;99.90
49765;DHT22;35657;51.204;-4.130;2022-10-13T01:02:13;13.70;99.90
49765;DHT22;35657;51.204;-4.130;2022-10-13T01:04:43;13.60;99.90
49765;DHT22;35657;51.204;-4.130;2022-10-13T01:07:10;13.60;99.90
49765;DHT22;35657;51.204;-4.130;2022-10-13T01:09:36;13.50;99.90
49765;DHT22;35657;51.204;-4.130;2022-10-13T01:12:15;13.50;99.90
49765;DHT22;35657;51.204;-4.130;2022-10-13T01:15:27;13.50;99.90
49765;DHT22;35657;51.204;-4.130;2022-10-13T01:28:45;13.40;99.90
49765;DHT22;35657;51.204;-4.130;2022-10-13T01:31:39;13.40;99.90
49765;DHT22;35657;51.204;-4.130;2022-10-13T01:37:01;13.40;99.90
49765;DHT22;35657;51.204;-4.130;2022-10-13T01:39:33;13.40;99.90
49765;DHT22;35657;51.204;-4.130;2022-10-13T01:42:05;13.40;99.90
49765;DHT22;35657;51.204;-4.130;2022-10-13T01:44:40;13.30;99.90
49765;DHT22;35657;51.204;-4.130;2022-10-13T01:47:09;13.30;99.90
49765;DHT22;35657;51.204;-4.130;2022-10-13T01:49:36;13.30;99.90
49765;DHT22;35657;51.204;-4.130;2022-10-13T01:52:06;13.30;99.90
49765;DHT22;35657;51.204;-4.130;2022-10-13T01:54:33;13.30;99.90
49765;DHT22;35657;51.204;-4.130;2022-10-13T01:56:59;13.20;99.90
49765;DHT22;35657;51.204;-4.130;2022-10-13T01:59:26;13.20;99.90
49765;DHT22;35657;51.204;-4.130;2022-10-13T02:07:45;13.20;99.90
49765;DHT22;35657;51.204;-4.130;2022-10-13T02:10:37;13.10;99.90
49765;DHT22;35657;51.204;-4.130;2022-10-13T02:13:06;13.10;99.90
49765;DHT22;35657;51.204;-4.130;2022-10-13T02:15:39;13.10;99.90
49765;DHT22;35657;51.204;-4.130;2022-10-13T02:18:06;13.10;99.90
49765;DHT22;35657;51.204;-4.130;2022-10-13T02:20:35;13.10;99.90
49765;DHT22;35657;51.204;-4.130;2022-10-13T02:23:06;13.10;99.90
49765;DHT22;35657;51.204;-4.130;2022-10-13T02:25:34;13.00;99.90
49765;DHT22;35657;51.204;-4.130;2022-10-13T02:28:00;13.00;99.90
49765;DHT22;35657;51.204;-4.130;2022-10-13T02:30:29;13.00;99.90
49765;DHT22;35657;51.204;-4.130;2022-10-13T02:32:55;13.00;99.90
49765;DHT22;35657;51.204;-4.130;2022-10-13T02:35:21;13.00;99.90
49765;DHT22;35657;51.204;-4.130;2022-10-13T02:37:47;13.00;99.90
49765;DHT22;35657;51.204;-4.130;2022-10-13T02:40:13;13.00;99.90
49765;DHT22;35657;51.204;-4.130;2022-10-13T02:42:38;13.00;99.90
49765;DHT22;35657;51.204;-4.130;2022-10-13T02:45:05;13.00;99.90
49765;DHT22;35657;51.204;-4.130;2022-10-13T02:47:30;12.90;99.90
49765;DHT22;35657;51.204;-4.130;2022-10-13T02:49:56;13.00;99.90
49765;DHT22;35657;51.204;-4.130;2022-10-13T02:52:22;13.00;99.90
49765;DHT22;35657;51.204;-4.130;2022-10-13T02:54:48;13.00;99.90
49765;DHT22;35657;51.204;-4.130;2022-10-13T02:57:13;13.00;99.90
49765;DHT22;35657;51.204;-4.130;2022-10-13T02:59:39;13.00;99.90
49765;DHT22;35657;51.204;-4.130;2022-10-13T03:02:05;13.00;99.90
49765;DHT22;35657;51.204;-4.130;2022-10-13T03:04:31;12.90;99.90
49765;DHT22;35657;51.204;-4.130;2022-10-13T03:06:57;12.90;99.90
49765;DHT22;35657;51.204;-4.130;2022-10-13T03:09:23;12.90;99.90
49765;DHT22;35657;51.204;-4.130;2022-10-13T03:11:48;13.00;99.90
49765;DHT22;35657;51.204;-4.130;2022-10-13T03:14:14;12.90;99.90
49765;DHT22;35657;51.204;-4.130;2022-10-13T03:16:40;12.90;99.90
49765;DHT22;35657;51.204;-4.130;2022-10-13T03:19:05;12.80;99.90
49765;DHT22;35657;51.204;-4.130;2022-10-13T03:21:31;12.90;99.90
49765;DHT22;35657;51.204;-4.130;2022-10-13T03:23:57;12.90;99.90
49765;DHT22;35657;51.204;-4.130;2022-10-13T03:26:22;12.80;99.90
49765;DHT22;35657;51.204;-4.130;2022-10-13T03:28:49;12.80;99.90
49765;DHT22;35657;51.204;-4.130;2022-10-13T03:31:15;12.80;99.90
49765;DHT22;35657;51.204;-4.130;2022-10-13T03:33:42;12.90;99.90
49765;DHT22;35657;51.204;-4.130;2022-10-13T03:36:09;12.80;99.90
49765;DHT22;35657;51.204;-4.130;2022-10-13T03:38:35;12.90;99.90
49765;DHT22;35657;51.204;-4.130;2022-10-13T03:41:12;12.90;99.90
49765;DHT22;35657;51.204;-4.130;2022-10-13T03:43:39;12.90;99.90
49765;DHT22;35657;51.204;-4.130;2022-10-13T03:46:06;12.80;99.90
49765;DHT22;35657;51.204;-4.130;2022-10-13T03:48:34;12.80;99.90
49765;DHT22;35657;51.204;-4.130;2022-10-13T03:51:07;12.80;99.90
49765;DHT22;35657;51.204;-4.130;2022-10-13T03:53:33;12.70;99.90
49765;DHT22;35657;51.204;-4.130;2022-10-13T03:55:58;12.70;99.90
49765;DHT22;35657;51.204;-4.130;2022-10-13T03:58:24;12.70;99.90
49765;DHT22;35657;51.204;-4.130;2022-10-13T04:00:52;12.80;99.90
49765;DHT22;35657;51.204;-4.130;2022-10-13T04:03:18;12.80;99.90
49765;DHT22;35657;51.204;-4.130;2022-10-13T04:05:44;12.70;99.90
49765;DHT22;35657;51.204;-4.130;2022-10-13T04:08:10;12.70;99.90
49765;DHT22;35657;51.204;-4.130;2022-10-13T04:10:37;12.70;99.90
49765;DHT22;35657;51.204;-4.130;2022-10-13T04:13:03;12.70;99.90
49765;DHT22;35657;51.204;-4.130;2022-10-13T04:15:30;12.60;99.90
49765;DHT22;35657;51.204;-4.130;2022-10-13T04:17:56;12.70;99.90
49765;DHT22;35657;51.204;-4.130;2022-10-13T04:20:21;12.70;99.90
49765;DHT22;35657;51.204;-4.130;2022-10-13T04:22:47;12.70;99.90
49765;DHT22;35657;51.204;-4.130;2022-10-13T04:25:13;12.60;99.90
49765;DHT22;35657;51.204;-4.130;2022-10-13T04:27:38;12.60;99.90
49765;DHT22;35657;51.204;-4.130;2022-10-13T04:30:05;12.50;99.90
49765;DHT22;35657;51.204;-4.130;2022-10-13T04:32:32;12.60;99.90
49765;DHT22;35657;51.204;-4.130;2022-10-13T04:34:57;12.50;99.90
49765;DHT22;35657;51.204;-4.130;2022-10-13T04:37:23;12.50;99.90
49765;DHT22;35657;51.204;-4.130;2022-10-13T04:39:49;12.50;99.90
49765;DHT22;35657;51.204;-4.130;2022-10-13T04:42:15;12.40;99.90
49765;DHT22;35657;51.204;-4.130;2022-10-13T04:44:41;12.50;99.90
49765;DHT22;35657;51.204;-4.130;2022-10-13T04:47:07;12.50;99.90
49765;DHT22;35657;51.204;-4.130;2022-10-13T04:49:34;12.50;99.90
49765;DHT22;35657;51.204;-4.130;2022-10-13T04:51:59;12.50;99.90
49765;DHT22;35657;51.204;-4.130;2022-10-13T04:54:25;12.50;99.90
49765;DHT22;35657;51.204;-4.130;2022-10-13T04:56:51;12.50;99.90
49765;DHT22;35657;51.204;-4.130;2022-10-13T04:59:16;12.40;99.90
49765;DHT22;35657;51.204;-4.130;2022-10-13T05:01:42;12.40;99.90
49765;DHT22;35657;51.204;-4.130;2022-10-13T05:04:09;12.40;99.90
49765;DHT22;35657;51.204;-4.130;2022-10-13T05:06:37;12.40;99.90
49765;DHT22;35657;51.204;-4.130;2022-10-13T05:09:03;12.30;99.90
49765;DHT22;35657;51.204;-4.130;2022-10-13T05:11:30;12.30;99.90
49765;DHT22;35657;51.204;-4.130;2022-10-13T05:13:56;12.30;99.90
49765;DHT22;35657;51.204;-4.130;2022-10-13T05:16:23;12.30;99.90
49765;DHT22;35657;51.204;-4.130;2022-10-13T05:18:51;12.30;99.90
49765;DHT22;35657;51.204;-4.130;2022-10-13T05:21:20;12.30;99.90
49765;DHT22;35657;51.204;-4.130;2022-10-13T05:23:47;12.30;99.90
49765;DHT22;35657;51.204;-4.130;2022-10-13T05:26:15;12.30;99.90
49765;DHT22;35657;51.204;-4.130;2022-10-13T05:28:41;12.40;99.90
49765;DHT22;35657;51.204;-4.130;2022-10-13T05:33:35;12.40;99.90
49765;DHT22;35657;51.204;-4.130;2022-10-13T05:36:08;12.40;99.90
49765;DHT22;35657;51.204;-4.130;2022-10-13T05:38:35;12.40;99.90
49765;DHT22;35657;51.204;-4.130;2022-10-13T05:41:11;12.40;99.90
49765;DHT22;35657;51.204;-4.130;2022-10-13T05:43:38;12.40;99.90
49765;DHT22;35657;51.204;-4.130;2022-10-13T05:46:05;12.50;99.90
49765;DHT22;35657;51.204;-4.130;2022-10-13T05:48:31;12.50;99.90
49765;DHT22;35657;51.204;-4.130;2022-10-13T05:50:59;12.50;99.90
49765;DHT22;35657;51.204;-4.130;2022-10-13T05:53:27;12.40;99.90
49765;DHT22;35657;51.204;-4.130;2022-10-13T05:55:55;12.40;99.90
49765;DHT22;35657;51.204;-4.130;2022-10-13T05:58:23;12.40;99.90
49765;DHT22;35657;51.204;-4.130;2022-10-13T06:00:49;12.40;99.90
49765;DHT22;35657;51.204;-4.130;2022-10-13T06:03:19;12.40;99.90
49765;DHT22;35657;51.204;-4.130;2022-10-13T06:05:46;12.40;99.90
49765;DHT22;35657;51.204;-4.130;2022-10-13T06:08:15;12.40;99.90
49765;DHT22;35657;51.204;-4.130;2022-10-13T06:10:41;12.40;99.90
49765;DHT22;35657;51.204;-4.130;2022-10-13T06:13:08;12.40;99.90
49765;DHT22;35657;51.204;-4.130;2022-10-13T06:15:34;12.40;99.90
49765;DHT22;35657;51.204;-4.130;2022-10-13T06:18:00;12.40;99.90
49765;DHT22;35657;51.204;-4.130;2022-10-13T06:20:26;12.40;99.90
49765;DHT22;35657;51.204;-4.130;2022-10-13T06:22:55;12.40;99.90
49765;DHT22;35657;51.204;-4.130;2022-10-13T06:25:21;12.40;99.90
49765;DHT22;35657;51.204;-4.130;2022-10-13T06:27:47;12.40;99.90
49765;DHT22;35657;51.204;-4.130;2022-10-13T06:30:13;12.40;99.90
49765;DHT22;35657;51.204;-4.130;2022-10-13T06:32:38;12.40;99.90
49765;DHT22;35657;51.204;-4.130;2022-10-13T06:35:04;12.40;99.90
49765;DHT22;35657;51.204;-4.130;2022-10-13T06:37:30;12.40;99.90
49765;DHT22;35657;51.204;-4.130;2022-10-13T06:39:56;12.40;99.90
49765;DHT22;35657;51.204;-4.130;2022-10-13T06:42:22;12.40;99.90
49765;DHT22;35657;51.204;-4.130;2022-10-13T06:44:47;12.40;99.90
49765;DHT22;35657;51.204;-4.130;2022-10-13T06:47:13;12.40;99.90
49765;DHT22;35657;51.204;-4.130;2022-10-13T06:49:39;12.40;99.90
49765;DHT22;35657;51.204;-4.130;2022-10-13T06:52:04;12.30;99.90
49765;DHT22;35657;51.204;-4.130;2022-10-13T06:54:30;12.30;99.90
49765;DHT22;35657;51.204;-4.130;2022-10-13T06:56:56;12.30;99.90
49765;DHT22;35657;51.204;-4.130;2022-10-13T06:59:21;12.30;99.90
49765;DHT22;35657;51.204;-4.130;2022-10-13T07:01:48;12.30;99.90
49765;DHT22;35657;51.204;-4.130;2022-10-13T07:04:14;12.30;99.90
49765;DHT22;35657;51.204;-4.130;2022-10-13T07:06:40;12.30;99.90
49765;DHT22;35657;51.204;-4.130;2022-10-13T07:09:06;12.20;99.90
49765;DHT22;35657;51.204;-4.130;2022-10-13T07:11:33;12.20;99.90
49765;DHT22;35657;51.204;-4.130;2022-10-13T07:13:59;12.30;99.90
49765;DHT22;35657;51.204;-4.130;2022-10-13T07:16:25;12.30;99.90
49765;DHT22;35657;51.204;-4.130;2022-10-13T07:18:51;12.30;99.90
49765;DHT22;35657;51.204;-4.130;2022-10-13T07:21:17;12.30;99.90
49765;DHT22;35657;51.204;-4.130;2022-10-13T07:23:43;12.30;99.90
49765;DHT22;35657;51.204;-4.130;2022-10-13T07:26:11;12.40;99.90
49765;DHT22;35657;51.204;-4.130;2022-10-13T07:28:37;12.30;99.90
49765;DHT22;35657;51.204;-4.130;2022-10-13T07:31:12;12.30;99.90
49765;DHT22;35657;51.204;-4.130;2022-10-13T07:33:39;12.30;99.90
49765;DHT22;35657;51.204;-4.130;2022-10-13T07:36:06;12.30;99.90
49765;DHT22;35657;51.204;-4.130;2022-10-13T07:38:31;12.30;99.90
49765;DHT22;35657;51.204;-4.130;2022-10-13T07:41:01;12.40;99.90
49765;DHT22;35657;51.204;-4.130;2022-10-13T07:43:27;12.40;99.90
49765;DHT22;35657;51.204;-4.130;2022-10-13T07:45:53;12.40;99.90
49765;DHT22;35657;51.204;-4.130;2022-10-13T07:48:19;12.40;99.90
49765;DHT22;35657;51.204;-4.130;2022-10-13T07:50:44;12.40;99.90
49765;DHT22;35657;51.204;-4.130;2022-10-13T07:53:10;12.40;99.90
49765;DHT22;35657;51.204;-4.130;2022-10-13T07:55:36;12.40;99.90
49765;DHT22;35657;51.204;-4.130;2022-10-13T07:58:02;12.40;99.90
49765;DHT22;35657;51.204;-4.130;2022-10-13T08:00:28;12.40;99.90
49765;DHT22;35657;51.204;-4.130;2022-10-13T08:02:54;12.40;99.90
49765;DHT22;35657;51.204;-4.130;2022-10-13T08:05:19;12.50;99.90
49765;DHT22;35657;51.204;-4.130;2022-10-13T08:07:45;12.40;99.90
49765;DHT22;35657;51.204;-4.130;2022-10-13T08:10:11;12.50;99.90
49765;DHT22;35657;51.204;-4.130;2022-10-13T08:12:38;12.50;99.90
49765;DHT22;35657;51.204;-4.130;2022-10-13T08:15:04;12.50;99.90
49765;DHT22;35657;51.204;-4.130;2022-10-13T08:17:30;12.70;99.90
49765;DHT22;35657;51.204;-4.130;2022-10-13T08:19:56;12.70;99.90
49765;DHT22;35657;51.204;-4.130;2022-10-13T08:22:22;12.70;99.90
49765;DHT22;35657;51.204;-4.130;2022-10-13T08:24:48;12.70;99.90
49765;DHT22;35657;51.204;-4.130;2022-10-13T08:27:21;12.60;99.90
49765;DHT22;35657;51.204;-4.130;2022-10-13T08:29:47;12.70;99.90
49765;DHT22;35657;51.204;-4.130;2022-10-13T08:32:13;12.60;99.90
49765;DHT22;35657;51.204;-4.130;2022-10-13T08:34:39;12.60;99.90
49765;DHT22;35657;51.204;-4.130;2022-10-13T08:37:04;12.70;99.90
49765;DHT22;35657;51.204;-4.130;2022-10-13T08:39:30;12.70;99.90
49765;DHT22;35657;51.204;-4.130;2022-10-13T08:41:56;12.70;99.90
49765;DHT22;35657;51.204;-4.130;2022-10-13T08:44:37;12.80;99.90
49765;DHT22;35657;51.204;-4.130;2022-10-13T08:49:43;12.90;99.90
49765;DHT22;35657;51.204;-4.130;2022-10-13T08:52:25;12.90;99.90
49765;DHT22;35657;51.204;-4.130;2022-10-13T08:54:53;12.90;99.90
49765;DHT22;35657;51.204;-4.130;2022-10-13T08:57:19;13.00;99.90
49765;DHT22;35657;51.204;-4.130;2022-10-13T08:59:45;13.00;99.90
49765;DHT22;35657;51.204;-4.130;2022-10-13T09:02:23;13.10;99.90
49765;DHT22;35657;51.204;-4.130;2022-10-13T09:04:52;13.20;99.90
49765;DHT22;35657;51.204;-4.130;2022-10-13T09:07:22;13.20;99.90
49765;DHT22;35657;51.204;-4.130;2022-10-13T09:09:53;13.30;99.90
49765;DHT22;35657;51.204;-4.130;2022-10-13T09:12:21;13.40;99.90
49765;DHT22;35657;51.204;-4.130;2022-10-13T09:15:21;13.50;99.90
49765;DHT22;35657;51.204;-4.130;2022-10-13T09:18:07;13.60;99.90
49765;DHT22;35657;51.204;-4.130;2022-10-13T09:20:33;13.70;99.90
49765;DHT22;35657;51.204;-4.130;2022-10-13T09:23:06;13.80;99.90
49765;DHT22;35657;51.204;-4.130;2022-10-13T09:25:43;13.90;99.90
49765;DHT22;35657;51.204;-4.130;2022-10-13T09:30:42;14.10;99.90
49765;DHT22;35657;51.204;-4.130;2022-10-13T09:35:39;14.50;99.90
49765;DHT22;35657;51.204;-4.130;2022-10-13T09:40:32;15.00;99.90
49765;DHT22;35657;51.204;-4.130;2022-10-13T09:43:00;15.20;99.90
49765;DHT22;35657;51.204;-4.130;2022-10-13T09:45:27;15.20;99.90
49765;DHT22;35657;51.204;-4.130;2022-10-13T09:48:03;15.40;99.90
49765;DHT22;35657;51.204;-4.130;2022-10-13T09:50:32;15.50;99.90
49765;DHT22;35657;51.204;-4.130;2022-10-13T09:55:45;15.70;99.90
49765;DHT22;35657;51.204;-4.130;2022-10-13T09:58:27;15.70;99.90
49765;DHT22;35657;51.204;-4.130;2022-10-13T10:00:54;15.60;99.90
49765;DHT22;35657;51.204;-4.130;2022-10-13T10:05:54;15.60;99.90
49765;DHT22;35657;51.204;-4.130;2022-10-13T10:11:28;15.70;99.90
49765;DHT22;35657;51.204;-4.130;2022-10-13T10:13:55;15.70;99.90
49765;DHT22;35657;51.204;-4.130;2022-10-13T10:16:28;15.70;99.90
49765;DHT22;35657;51.204;-4.130;2022-10-13T10:19:01;15.70;99.90
49765;DHT22;35657;51.204;-4.130;2022-10-13T10:21:45;15.70;99.90
49765;DHT22;35657;51.204;-4.130;2022-10-13T10:26:58;15.30;99.90
49765;DHT22;35657;51.204;-4.130;2022-10-13T10:29:49;15.10;99.90
49765;DHT22;35657;51.204;-4.130;2022-10-13T10:35:20;14.80;99.90
49765;DHT22;35657;51.204;-4.130;2022-10-13T10:44:16;14.70;99.90
49765;DHT22;35657;51.204;-4.130;2022-10-13T10:46:51;14.80;99.90
49765;DHT22;35657;51.204;-4.130;2022-10-13T10:49:24;14.70;99.90
49765;DHT22;35657;51.204;-4.130;2022-10-13T10:51:51;14.60;99.90
49765;DHT22;35657;51.204;-4.130;2022-10-13T10:56:57;14.80;99.90
49765;DHT22;35657;51.204;-4.130;2022-10-13T11:02:02;15.20;99.90
49765;DHT22;35657;51.204;-4.130;2022-10-13T11:04:42;15.10;99.90
49765;DHT22;35657;51.204;-4.130;2022-10-13T11:12:25;15.50;99.90
49765;DHT22;35657;51.204;-4.130;2022-10-13T11:15:11;15.60;99.90
49765;DHT22;35657;51.204;-4.130;2022-10-13T11:17:39;15.20;99.90
49765;DHT22;35657;51.204;-4.130;2022-10-13T11:26:17;15.20;99.90
49765;DHT22;35657;51.204;-4.130;2022-10-13T11:44:32;16.80;99.90
49765;DHT22;35657;51.204;-4.130;2022-10-13T11:47:08;16.50;99.90
49765;DHT22;35657;51.204;-4.130;2022-10-13T11:56:04;17.00;99.90
49765;DHT22;35657;51.204;-4.130;2022-10-13T11:58:15;17.20;99.90
49765;DHT22;35657;51.204;-4.130;2022-10-13T12:01:05;17.00;99.90
49765;DHT22;35657;51.204;-4.130;2022-10-13T12:03:37;17.10;99.90
49765;DHT22;35657;51.204;-4.130;2022-10-13T12:06:31;17.00;99.90
49765;DHT22;35657;51.204;-4.130;2022-10-13T12:09:04;16.80;99.90
49765;DHT22;35657;51.204;-4.130;2022-10-13T12:11:34;16.00;99.90
49765;DHT22;35657;51.204;-4.130;2022-10-13T12:14:03;15.50;99.90
49765;DHT22;35657;51.204;-4.130;2022-10-13T12:16:30;15.50;99.90
49765;DHT22;35657;51.204;-4.130;2022-10-13T12:19:06;15.60;99.90
49765;DHT22;35657;51.204;-4.130;2022-10-13T12:21:33;15.40;99.90
49765;DHT22;35657;51.204;-4.130;2022-10-13T12:24:07;15.80;99.90
49765;DHT22;35657;51.204;-4.130;2022-10-13T12:26:33;15.40;99.90
49765;DHT22;35657;51.204;-4.130;2022-10-13T12:29:04;15.60;99.90
49765;DHT22;35657;51.204;-4.130;2022-10-13T12:31:45;15.70;99.90
49765;DHT22;35657;51.204;-4.130;2022-10-13T12:34:27;15.70;99.90
49765;DHT22;35657;51.204;-4.130;2022-10-13T12:37:09;15.50;99.90
49765;DHT22;35657;51.204;-4.130;2022-10-13T12:39:37;15.60;99.90
49765;DHT22;35657;51.204;-4.130;2022-10-13T12:42:06;15.40;99.90
49765;DHT22;35657;51.204;-4.130;2022-10-13T12:44:32;15.30;99.90
49765;DHT22;35657;51.204;-4.130;2022-10-13T12:46:59;15.30;99.90
49765;DHT22;35657;51.204;-4.130;2022-10-13T12:49:28;15.30;99.90
49765;DHT22;35657;51.204;-4.130;2022-10-13T12:52:14;15.60;99.90
49765;DHT22;35657;51.204;-4.130;2022-10-13T12:54:53;15.40;99.90
49765;DHT22;35657;51.204;-4.130;2022-10-13T12:57:24;15.40;99.90
49765;DHT22;35657;51.204;-4.130;2022-10-13T12:59:51;15.50;99.90
49765;DHT22;35657;51.204;-4.130;2022-10-13T13:02:27;15.50;99.90
49765;DHT22;35657;51.204;-4.130;2022-10-13T13:04:53;15.70;99.90
49765;DHT22;35657;51.204;-4.130;2022-10-13T13:07:29;15.80;99.90
49765;DHT22;35657;51.204;-4.130;2022-10-13T13:10:07;15.60;99.90
49765;DHT22;35657;51.204;-4.130;2022-10-13T13:12:37;15.40;99.90
49765;DHT22;35657;51.204;-4.130;2022-10-13T13:15:35;15.30;99.90
49765;DHT22;35657;51.204;-4.130;2022-10-13T13:20:49;15.10;99.90
49765;DHT22;35657;51.204;-4.130;2022-10-13T13:23:15;15.20;99.90
49765;DHT22;35657;51.204;-4.130;2022-10-13T13:25:47;15.50;99.90
49765;DHT22;35657;51.204;-4.130;2022-10-13T13:28:28;15.70;99.90
49765;DHT22;35657;51.204;-4.130;2022-10-13T13:30:54;16.00;99.90
49765;DHT22;35657;51.204;-4.130;2022-10-13T13:33:19;16.00;99.90
49765;DHT22;35657;51.204;-4.130;2022-10-13T13:35:45;16.30;99.90
49765;DHT22;35657;51.204;-4.130;2022-10-13T13:38:13;16.20;99.90
49765;DHT22;35657;51.204;-4.130;2022-10-13T13:40:39;16.30;99.90
49765;DHT22;35657;51.204;-4.130;2022-10-13T13:43:05;16.30;99.90
49765;DHT22;35657;51.204;-4.130;2022-10-13T13:45:32;16.30;99.90
49765;DHT22;35657;51.204;-4.130;2022-10-13T13:47:59;16.20;99.90
49765;DHT22;35657;51.204;-4.130;2022-10-13T13:50:27;15.80;99.90
49765;DHT22;35657;51.204;-4.130;2022-10-13T13:52:56;15.70;99.90
49765;DHT22;35657;51.204;-4.130;2022-10-13T13:55:22;15.70;99.90
49765;DHT22;35657;51.204;-4.130;2022-10-13T13:57:48;15.60;99.90
49765;DHT22;35657;51.204;-4.130;2022-10-13T14:00:14;15.80;99.90
49765;DHT22;35657;51.204;-4.130;2022-10-13T14:02:41;15.70;99.90
49765;DHT22;35657;51.204;-4.130;2022-10-13T14:05:08;15.90;99.90
49765;DHT22;35657;51.204;-4.130;2022-10-13T14:07:34;15.80;99.90
49765;DHT22;35657;51.204;-4.130;2022-10-13T14:10:00;15.60;99.90
49765;DHT22;35657;51.204;-4.130;2022-10-13T14:12:27;15.70;99.90
49765;DHT22;35657;51.204;-4.130;2022-10-13T14:14:53;15.80;99.90
49765;DHT22;35657;51.204;-4.130;2022-10-13T14:17:18;16.00;99.90
49765;DHT22;35657;51.204;-4.130;2022-10-13T14:19:44;15.70;99.90
49765;DHT22;35657;51.204;-4.130;2022-10-13T14:22:10;15.50;99.90
49765;DHT22;35657;51.204;-4.130;2022-10-13T14:24:36;15.70;99.90
49765;DHT22;35657;51.204;-4.130;2022-10-13T14:27:01;15.80;99.90
49765;DHT22;35657;51.204;-4.130;2022-10-13T14:29:27;15.80;99.90
49765;DHT22;35657;51.204;-4.130;2022-10-13T14:31:53;15.80;99.90
49765;DHT22;35657;51.204;-4.130;2022-10-13T14:34:18;15.70;99.90
49765;DHT22;35657;51.204;-4.130;2022-10-13T14:36:45;15.80;99.90
49765;DHT22;35657;51.204;-4.130;2022-10-13T14:39:11;15.70;99.90
49765;DHT22;35657;51.204;-4.130;2022-10-13T14:41:36;15.80;99.90
49765;DHT22;35657;51.204;-4.130;2022-10-13T14:44:03;16.00;99.90
49765;DHT22;35657;51.204;-4.130;2022-10-13T14:46:29;16.00;99.90
49765;DHT22;35657;51.204;-4.130;2022-10-13T14:48:55;16.00;99.90
49765;DHT22;35657;51.204;-4.130;2022-10-13T14:51:23;15.80;99.90
49765;DHT22;35657;51.204;-4.130;2022-10-13T14:53:49;15.80;99.90
49765;DHT22;35657;51.204;-4.130;2022-10-13T14:56:19;15.80;99.90
49765;DHT22;35657;51.204;-4.130;2022-10-13T14:58:46;15.80;99.90
49765;DHT22;35657;51.204;-4.130;2022-10-13T15:01:12;15.90;99.90
49765;DHT22;35657;51.204;-4.130;2022-10-13T15:03:38;15.80;99.90
49765;DHT22;35657;51.204;-4.130;2022-10-13T15:06:03;15.70;99.90
49765;DHT22;35657;51.204;-4.130;2022-10-13T15:08:31;15.70;99.90
49765;DHT22;35657;51.204;-4.130;2022-10-13T15:10:58;15.70;99.90
49765;DHT22;35657;51.204;-4.130;2022-10-13T15:13:24;15.70;99.90
49765;DHT22;35657;51.204;-4.130;2022-10-13T15:15:50;15.60;99.90
49765;DHT22;35657;51.204;-4.130;2022-10-13T15:18:16;15.60;99.90
49765;DHT22;35657;51.204;-4.130;2022-10-13T15:20:45;15.70;99.90
49765;DHT22;35657;51.204;-4.130;2022-10-13T15:23:11;15.80;99.90
49765;DHT22;35657;51.204;-4.130;2022-10-13T15:25:37;15.90;99.90
49765;DHT22;35657;51.204;-4.130;2022-10-13T15:28:04;15.70;99.90
49765;DHT22;35657;51.204;-4.130;2022-10-13T15:30:32;15.80;99.90
49765;DHT22;35657;51.204;-4.130;2022-10-13T15:32:58;15.90;99.90
49765;DHT22;35657;51.204;-4.130;2022-10-13T15:35:27;16.10;99.90
49765;DHT22;35657;51.204;-4.130;2022-10-13T15:37:53;15.70;99.90
49765;DHT22;35657;51.204;-4.130;2022-10-13T15:40:19;15.70;99.90
49765;DHT22;35657;51.204;-4.130;2022-10-13T15:42:44;15.60;99.90
49765;DHT22;35657;51.204;-4.130;2022-10-13T15:45:10;15.70;99.90
49765;DHT22;35657;51.204;-4.130;2022-10-13T15:47:36;15.70;99.90
49765;DHT22;35657;51.204;-4.130;2022-10-13T15:50:03;15.60;99.90
49765;DHT22;35657;51.204;-4.130;2022-10-13T15:52:28;15.50;99.90
49765;DHT22;35657;51.204;-4.130;2022-10-13T15:54:54;15.70;99.90
49765;DHT22;35657;51.204;-4.130;2022-10-13T15:57:21;15.80;99.90
49765;DHT22;35657;51.204;-4.130;2022-10-13T15:59:47;15.90;99.90
49765;DHT22;35657;51.204;-4.130;2022-10-13T16:02:12;15.90;99.90
49765;DHT22;35657;51.204;-4.130;2022-10-13T16:04:38;16.10;99.90
49765;DHT22;35657;51.204;-4.130;2022-10-13T16:07:04;16.00;99.90
49765;DHT22;35657;51.204;-4.130;2022-10-13T16:09:30;16.00;99.90
49765;DHT22;35657;51.204;-4.130;2022-10-13T16:11:55;16.10;99.90
49765;DHT22;35657;51.204;-4.130;2022-10-13T16:14:21;15.90;99.90
49765;DHT22;35657;51.204;-4.130;2022-10-13T16:16:46;15.90;99.90
49765;DHT22;35657;51.204;-4.130;2022-10-13T16:19:12;15.90;99.90
49765;DHT22;35657;51.204;-4.130;2022-10-13T16:21:38;15.90;99.90
49765;DHT22;35657;51.204;-4.130;2022-10-13T16:24:04;15.90;99.90
49765;DHT22;35657;51.204;-4.130;2022-10-13T16:26:30;15.90;99.90
49765;DHT22;35657;51.204;-4.130;2022-10-13T16:28:56;15.90;99.90
49765;DHT22;35657;51.204;-4.130;2022-10-13T16:31:22;15.90;99.90
49765;DHT22;35657;51.204;-4.130;2022-10-13T16:33:48;15.90;99.90
49765;DHT22;35657;51.204;-4.130;2022-10-13T16:36:16;15.90;99.90
49765;DHT22;35657;51.204;-4.130;2022-10-13T16:38:43;16.00;99.90
49765;DHT22;35657;51.204;-4.130;2022-10-13T16:41:13;16.10;99.90
49765;DHT22;35657;51.204;-4.130;2022-10-13T16:43:39;16.10;99.90
49765;DHT22;35657;51.204;-4.130;2022-10-13T16:46:06;16.10;99.90
49765;DHT22;35657;51.204;-4.130;2022-10-13T16:48:33;15.90;99.90
49765;DHT22;35657;51.204;-4.130;2022-10-13T16:51:04;15.80;99.90
49765;DHT22;35657;51.204;-4.130;2022-10-13T16:53:30;15.70;99.90
49765;DHT22;35657;51.204;-4.130;2022-10-13T16:55:55;15.60;99.90
49765;DHT22;35657;51.204;-4.130;2022-10-13T16:58:21;15.60;99.90